createdAt,value
2018-03-23T00:00:01.869Z,43.46
2018-03-23T00:02:28.096Z,43.42
2018-03-23T00:04:54.287Z,43.42
2018-03-23T00:07:20.475Z,43.44
2018-03-23T00:09:46.768Z,43.47
2018-03-23T00:12:12.960Z,43.53
2018-03-23T00:14:39.135Z,43.56
2018-03-23T00:17:05.348Z,43.54
2018-03-23T00:19:31.719Z,43.64
2018-03-23T00:21:57.900Z,43.69
2018-03-23T00:24:24.092Z,43.82
2018-03-23T00:26:50.299Z,43.98
2018-03-23T00:29:16.501Z,44.36
2018-03-23T00:31:42.732Z,44.31
2018-03-23T00:34:08.948Z,44.20
2018-03-23T00:36:35.136Z,44.00
2018-03-23T00:39:01.364Z,44.00
2018-03-23T00:41:27.894Z,44.47
2018-03-23T00:43:54.086Z,44.65
2018-03-23T00:46:20.282Z,44.59
2018-03-23T00:48:46.787Z,44.34
2018-03-23T00:51:12.954Z,44.90
2018-03-23T00:53:39.447Z,44.85
2018-03-23T00:56:05.624Z,44.87
2018-03-23T00:58:32.112Z,44.86
2018-03-23T01:00:58.285Z,44.92
2018-03-23T01:03:24.481Z,44.90
2018-03-23T01:05:50.694Z,44.97
2018-03-23T01:08:17.123Z,44.97
2018-03-23T01:10:43.659Z,44.99
2018-03-23T01:13:09.829Z,44.97
2018-03-23T01:15:36.316Z,45.02
2018-03-23T01:18:02.517Z,45.09
2018-03-23T01:20:28.699Z,45.15
2018-03-23T01:22:55.213Z,45.16
2018-03-23T01:25:21.415Z,45.21
2018-03-23T01:27:47.597Z,45.20
2018-03-23T01:30:13.810Z,45.20
2018-03-23T01:32:40.048Z,45.14
2018-03-23T01:35:06.571Z,45.28
2018-03-23T01:37:32.733Z,45.30
2018-03-23T01:39:58.921Z,45.35
2018-03-23T01:42:25.122Z,45.31
2018-03-23T01:44:51.286Z,45.28
2018-03-23T01:47:17.799Z,45.32
2018-03-23T01:49:44.231Z,45.09
2018-03-23T01:52:10.436Z,45.19
2018-03-23T01:54:36.611Z,45.12
2018-03-23T01:57:02.820Z,45.06
2018-03-23T01:59:29.039Z,45.61
2018-03-23T02:01:55.237Z,45.22
2018-03-23T02:04:21.702Z,45.24
2018-03-23T02:06:47.899Z,45.10
2018-03-23T02:09:14.074Z,45.21
2018-03-23T02:11:40.365Z,44.99
2018-03-23T02:14:06.548Z,45.03
2018-03-23T02:16:32.795Z,44.92
2018-03-23T02:18:59.275Z,44.97
2018-03-23T02:21:25.442Z,44.97
2018-03-23T02:23:51.662Z,44.76
2018-03-23T02:26:18.163Z,44.81
2018-03-23T02:28:44.330Z,44.88
2018-03-23T02:31:10.524Z,44.91
2018-03-23T02:33:36.760Z,45.43
2018-03-23T02:36:02.954Z,45.90
2018-03-23T02:38:29.155Z,45.92
2018-03-23T02:40:55.328Z,45.88
2018-03-23T02:43:21.929Z,45.83
2018-03-23T02:45:48.111Z,45.92
2018-03-23T02:48:14.627Z,45.94
2018-03-23T02:50:41.227Z,45.87
2018-03-23T02:53:07.458Z,45.81
2018-03-23T02:55:33.630Z,45.71
2018-03-23T02:57:59.854Z,45.71
2018-03-23T03:00:26.037Z,45.73
2018-03-23T03:02:52.219Z,45.73
2018-03-23T03:05:18.454Z,45.71
2018-03-23T03:07:44.659Z,45.83
2018-03-23T03:10:10.844Z,45.79
2018-03-23T03:12:37.050Z,45.79
2018-03-23T03:15:03.552Z,45.74
2018-03-23T03:17:29.750Z,45.77
2018-03-23T03:19:55.923Z,45.81
2018-03-23T03:22:22.441Z,45.71
2018-03-23T03:24:48.873Z,45.87
2018-03-23T03:27:15.072Z,45.79
2018-03-23T03:29:41.531Z,45.76
2018-03-23T03:32:08.063Z,45.80
2018-03-23T03:34:34.294Z,46.00
2018-03-23T03:37:00.512Z,46.08
2018-03-23T03:39:26.726Z,45.99
2018-03-23T03:41:53.286Z,45.86
2018-03-23T03:44:19.449Z,45.52
2018-03-23T03:46:45.637Z,45.73
2018-03-23T03:49:11.867Z,45.63
2018-03-23T03:51:38.038Z,45.46
2018-03-23T03:54:04.209Z,45.32
2018-03-23T03:56:30.415Z,45.29
2018-03-23T03:58:56.884Z,45.21
2018-03-23T04:01:23.315Z,45.08
2018-03-23T04:03:49.498Z,45.13
2018-03-23T04:06:15.716Z,45.34
2018-03-23T04:08:42.240Z,45.39
2018-03-23T04:11:08.484Z,45.41
2018-03-23T04:13:34.663Z,45.51
2018-03-23T04:16:00.853Z,45.40
2018-03-23T04:18:27.520Z,45.28
2018-03-23T04:20:53.834Z,45.31
2018-03-23T04:23:20.019Z,45.31
2018-03-23T04:25:46.235Z,45.35
2018-03-23T04:28:12.441Z,45.26
2018-03-23T04:30:38.630Z,45.25
2018-03-23T04:33:05.202Z,45.64
2018-03-23T04:35:31.392Z,45.75
2018-03-23T04:37:57.573Z,46.19
2018-03-23T04:40:23.769Z,46.13
2018-03-23T04:42:49.945Z,46.01
2018-03-23T04:45:16.749Z,46.01
2018-03-23T04:47:42.923Z,45.94
2018-03-23T04:50:09.205Z,45.94
2018-03-23T04:52:35.412Z,45.97
2018-03-23T04:55:01.644Z,45.84
2018-03-23T04:57:27.834Z,45.90
2018-03-23T04:59:54.702Z,46.04
2018-03-23T05:02:21.579Z,46.04
2018-03-23T05:04:47.753Z,45.83
2018-03-23T05:07:13.930Z,45.41
2018-03-23T05:09:40.129Z,45.00
2018-03-23T05:12:06.597Z,44.85
2018-03-23T05:14:32.817Z,44.78
2018-03-23T05:16:59.023Z,44.69
2018-03-23T05:19:25.381Z,44.61
2018-03-23T05:21:51.919Z,44.55
2018-03-23T05:24:18.352Z,44.52
2018-03-23T05:26:44.953Z,44.44
2018-03-23T05:29:11.417Z,44.38
2018-03-23T05:31:37.725Z,44.25
2018-03-23T05:34:04.042Z,44.16
2018-03-23T05:36:30.291Z,44.05
2018-03-23T05:38:56.909Z,44.00
2018-03-23T05:41:23.383Z,43.96
2018-03-23T05:43:49.570Z,43.89
2018-03-23T05:46:15.784Z,43.82
2018-03-23T05:48:41.991Z,43.78
2018-03-23T05:51:08.293Z,43.71
2018-03-23T05:53:34.493Z,43.67
2018-03-23T05:56:00.676Z,43.65
2018-03-23T05:58:26.868Z,43.59
2018-03-23T06:00:53.059Z,43.68
2018-03-23T06:03:19.534Z,45.19
2018-03-23T06:05:45.703Z,44.39
2018-03-23T06:08:11.912Z,44.23
2018-03-23T06:10:38.131Z,44.25
2018-03-23T06:13:04.372Z,44.30
2018-03-23T06:15:30.878Z,44.17
2018-03-23T06:17:57.060Z,44.14
2018-03-23T06:20:23.264Z,44.06
2018-03-23T06:22:49.504Z,44.26
2018-03-23T06:25:15.698Z,43.91
2018-03-23T06:27:41.899Z,43.76
2018-03-23T06:30:08.454Z,43.69
2018-03-23T06:32:34.633Z,43.58
2018-03-23T06:35:00.863Z,43.50
2018-03-23T06:37:27.040Z,43.45
2018-03-23T06:39:53.277Z,43.37
2018-03-23T06:42:19.697Z,43.25
2018-03-23T06:44:45.918Z,43.48
2018-03-23T06:47:12.171Z,43.41
2018-03-23T06:49:38.358Z,43.64
2018-03-23T06:52:04.541Z,43.60
2018-03-23T06:54:30.780Z,43.71
2018-03-23T06:56:56.970Z,43.57
2018-03-23T06:59:23.182Z,43.56
2018-03-23T07:01:49.353Z,43.33
2018-03-23T07:04:15.565Z,43.55
2018-03-23T07:06:41.776Z,43.76
2018-03-23T07:09:08.315Z,43.84
2018-03-23T07:11:34.759Z,43.85
2018-03-23T07:14:01.279Z,43.58
2018-03-23T07:16:27.479Z,43.37
2018-03-23T07:18:53.668Z,42.97
2018-03-23T07:21:20.171Z,42.71
2018-03-23T07:23:46.355Z,42.61
2018-03-23T07:26:12.830Z,42.41
2018-03-23T07:28:39.011Z,42.23
2018-03-23T07:31:05.233Z,42.11
2018-03-23T07:33:31.442Z,42.14
2018-03-23T07:35:57.652Z,42.06
2018-03-23T07:38:23.888Z,42.08
2018-03-23T07:40:50.072Z,42.18
2018-03-23T07:43:16.255Z,42.15
2018-03-23T07:45:42.585Z,42.10
2018-03-23T07:48:08.747Z,42.10
2018-03-23T07:50:34.950Z,42.01
2018-03-23T07:53:01.152Z,41.91
2018-03-23T07:55:27.368Z,41.77
2018-03-23T07:57:53.608Z,41.63
2018-03-23T08:00:19.809Z,41.54
2018-03-23T08:02:46.001Z,41.45
2018-03-23T08:05:12.215Z,41.41
2018-03-23T08:07:38.423Z,41.27
2018-03-23T08:10:04.639Z,41.21
2018-03-23T08:12:30.824Z,41.23
2018-03-23T08:14:57.040Z,41.20
2018-03-23T08:17:23.524Z,41.24
2018-03-23T08:19:49.727Z,41.28
2018-03-23T08:22:15.913Z,41.39
2018-03-23T08:24:42.173Z,41.42
2018-03-23T08:27:08.351Z,41.40
2018-03-23T08:29:34.540Z,41.38
2018-03-23T08:32:00.787Z,41.29
2018-03-23T08:34:27.063Z,41.22
2018-03-23T08:36:53.238Z,41.13
2018-03-23T08:39:20.189Z,41.10
2018-03-23T08:41:46.416Z,41.07
2018-03-23T08:44:12.592Z,40.91
2018-03-23T08:46:38.819Z,40.85
2018-03-23T08:49:05.024Z,40.94
2018-03-23T08:51:31.222Z,40.94
2018-03-23T08:53:57.766Z,40.89
2018-03-23T08:56:24.001Z,40.83
2018-03-23T08:58:50.184Z,40.78
2018-03-23T09:01:16.378Z,40.80
2018-03-23T09:03:42.884Z,40.79
2018-03-23T09:06:09.060Z,40.71
2018-03-23T09:08:35.230Z,40.75
2018-03-23T09:11:01.423Z,40.70
2018-03-23T09:13:27.607Z,40.72
2018-03-23T09:15:53.818Z,40.74
2018-03-23T09:18:19.994Z,40.77
2018-03-23T09:20:46.634Z,40.80
2018-03-23T09:23:12.836Z,40.84
2018-03-23T09:25:39.029Z,41.09
2018-03-23T09:28:05.371Z,41.16
2018-03-23T09:30:31.625Z,40.84
2018-03-23T09:32:57.804Z,40.72
2018-03-23T09:35:24.006Z,40.74
2018-03-23T09:37:50.206Z,40.77
2018-03-23T09:40:16.434Z,40.86
2018-03-23T09:42:42.670Z,40.88
2018-03-23T09:45:08.894Z,40.83
2018-03-23T09:47:35.085Z,40.79
2018-03-23T09:50:01.276Z,40.79
2018-03-23T09:52:27.901Z,40.77
2018-03-23T09:54:54.081Z,40.73
2018-03-23T09:57:20.288Z,40.61
2018-03-23T09:59:46.513Z,40.57
2018-03-23T10:02:12.740Z,40.50
2018-03-23T10:04:38.960Z,40.40
2018-03-23T10:07:05.424Z,40.35
2018-03-23T10:09:31.665Z,40.34
2018-03-23T10:11:57.855Z,40.29
2018-03-23T10:14:24.081Z,40.26
2018-03-23T10:16:50.279Z,40.24
2018-03-23T10:19:16.521Z,40.20
2018-03-23T10:21:42.745Z,40.13
2018-03-23T10:24:09.223Z,40.09
2018-03-23T10:26:35.763Z,40.02
2018-03-23T10:29:02.049Z,39.98
2018-03-23T10:31:28.204Z,39.96
2018-03-23T10:33:54.435Z,39.91
2018-03-23T10:36:20.711Z,39.90
2018-03-23T10:38:47.265Z,39.92
2018-03-23T10:41:13.462Z,39.94
2018-03-23T10:43:39.683Z,40.00
2018-03-23T10:46:06.199Z,40.02
2018-03-23T10:48:32.739Z,39.98
2018-03-23T10:50:58.966Z,39.92
2018-03-23T10:53:25.229Z,39.95
2018-03-23T10:55:51.459Z,40.01
2018-03-23T10:58:17.675Z,40.06
2018-03-23T11:00:49.895Z,40.09
2018-03-23T11:03:16.124Z,40.12
2018-03-23T11:05:42.355Z,40.13
2018-03-23T11:08:09.058Z,40.19
2018-03-23T11:10:35.257Z,40.21
2018-03-23T11:13:01.445Z,40.18
2018-03-23T11:15:27.699Z,40.09
2018-03-23T11:17:53.932Z,40.03
2018-03-23T11:20:20.508Z,40.04
2018-03-23T11:22:46.710Z,40.05
2018-03-23T11:25:12.903Z,39.99
2018-03-23T11:27:39.508Z,39.93
2018-03-23T11:30:05.689Z,39.88
2018-03-23T11:32:31.875Z,39.87
2018-03-23T11:34:58.191Z,39.87
2018-03-23T11:37:24.476Z,39.92
2018-03-23T11:39:50.650Z,39.94
2018-03-23T11:42:16.852Z,39.93
2018-03-23T11:44:43.099Z,39.88
2018-03-23T11:47:09.282Z,39.88
2018-03-23T11:49:35.484Z,39.93
2018-03-23T11:52:01.710Z,39.93
2018-03-23T11:54:27.978Z,39.94
2018-03-23T11:56:54.173Z,39.96
2018-03-23T11:59:20.342Z,40.01
2018-03-23T12:01:46.848Z,40.08
2018-03-23T12:04:13.040Z,40.11
2018-03-23T12:06:39.217Z,40.15
2018-03-23T12:09:05.436Z,40.14
2018-03-23T12:11:31.673Z,40.13
2018-03-23T12:13:57.892Z,40.13
2018-03-23T12:16:25.001Z,40.11
2018-03-23T12:18:51.572Z,40.11
2018-03-23T12:21:17.780Z,40.16
2018-03-23T12:23:43.975Z,40.14
2018-03-23T12:26:10.196Z,40.06
2018-03-23T12:28:36.406Z,39.98
2018-03-23T12:31:02.619Z,39.97
2018-03-23T12:33:28.816Z,40.00
2018-03-23T12:35:55.436Z,40.02
2018-03-23T12:38:21.909Z,39.99
2018-03-23T12:40:48.444Z,39.98
2018-03-23T12:43:14.650Z,40.02
2018-03-23T12:45:40.885Z,40.07
2018-03-23T12:48:07.441Z,40.12
2018-03-23T12:50:33.688Z,40.14
2018-03-23T12:52:59.873Z,40.11
2018-03-23T12:55:26.078Z,40.04
2018-03-23T12:57:52.707Z,40.01
2018-03-23T13:00:19.192Z,40.08
2018-03-23T13:02:48.610Z,40.40
2018-03-23T13:05:14.893Z,40.70
2018-03-23T13:07:41.358Z,40.89
2018-03-23T13:10:07.581Z,40.99
2018-03-23T13:12:33.852Z,41.02
2018-03-23T13:15:00.068Z,40.61
2018-03-23T13:17:26.575Z,40.50
2018-03-23T13:19:53.168Z,40.54
2018-03-23T13:22:19.376Z,40.66
2018-03-23T13:24:45.549Z,40.69
2018-03-23T13:27:11.787Z,40.89
2018-03-23T13:29:37.968Z,41.28
2018-03-23T13:32:04.146Z,41.15
2018-03-23T13:34:30.368Z,41.08
2018-03-23T13:36:56.637Z,41.37
2018-03-23T13:39:23.145Z,41.39
2018-03-23T13:41:49.317Z,41.30
2018-03-23T13:44:15.804Z,41.27
2018-03-23T13:46:41.978Z,41.29
2018-03-23T13:49:08.188Z,41.33
2018-03-23T13:51:34.371Z,41.33
2018-03-23T13:54:00.557Z,41.26
2018-03-23T13:56:26.748Z,41.26
2018-03-23T13:58:59.011Z,41.24
2018-03-23T14:01:31.390Z,41.23
2018-03-23T14:03:57.607Z,41.23
2018-03-23T14:06:24.144Z,41.24
2018-03-23T14:08:50.681Z,41.24
2018-03-23T14:11:16.896Z,41.25
2018-03-23T14:13:43.107Z,41.28
2018-03-23T14:16:09.332Z,41.34
2018-03-23T14:18:35.630Z,41.39
2018-03-23T14:21:01.842Z,41.40
2018-03-23T14:23:28.018Z,41.41
2018-03-23T14:25:54.483Z,41.42
2018-03-23T14:28:20.674Z,41.42
2018-03-23T14:30:46.878Z,41.43
2018-03-23T14:33:13.067Z,41.44
2018-03-23T14:35:39.265Z,41.47
2018-03-23T14:38:05.500Z,41.49
2018-03-23T14:40:32.056Z,41.49
2018-03-23T14:42:58.295Z,41.50
2018-03-23T14:45:24.477Z,41.49
2018-03-23T14:47:50.943Z,41.46
2018-03-23T14:50:17.175Z,41.49
2018-03-23T14:52:43.708Z,41.48
2018-03-23T14:55:09.900Z,41.48
2018-03-23T14:57:36.114Z,41.49
2018-03-23T15:00:02.417Z,41.48
2018-03-23T15:02:28.604Z,41.49
2018-03-23T15:04:54.823Z,41.52
2018-03-23T15:07:20.994Z,41.56
2018-03-23T15:09:47.174Z,41.57
2018-03-23T15:12:13.411Z,41.58
2018-03-23T15:14:39.589Z,41.58
2018-03-23T15:17:05.758Z,41.57
2018-03-23T15:19:31.963Z,41.59
2018-03-23T15:21:58.178Z,41.57
2018-03-23T15:24:24.408Z,41.58
2018-03-23T15:26:50.589Z,41.57
2018-03-23T15:29:23.941Z,41.57
2018-03-23T15:31:50.131Z,41.59
2018-03-23T15:34:16.319Z,41.64
2018-03-23T15:36:42.532Z,41.67
2018-03-23T15:39:08.807Z,41.68
2018-03-23T15:41:35.013Z,41.69
2018-03-23T15:44:01.212Z,41.73
2018-03-23T15:46:34.309Z,41.72
2018-03-23T15:49:00.773Z,41.73
2018-03-23T15:51:27.024Z,41.74
2018-03-23T15:53:53.297Z,41.75
2018-03-23T15:56:19.795Z,41.75
2018-03-23T15:58:46.374Z,41.76
2018-03-23T16:01:12.551Z,41.79
2018-03-23T16:03:38.736Z,41.83
2018-03-23T16:06:05.355Z,41.81
2018-03-23T16:08:31.550Z,41.83
2018-03-23T16:10:57.727Z,41.84
2018-03-23T16:13:23.966Z,41.85
2018-03-23T16:15:50.149Z,41.86
2018-03-23T16:18:16.336Z,41.89
2018-03-23T16:20:42.871Z,41.88
2018-03-23T16:23:09.512Z,41.86
2018-03-23T16:25:35.697Z,41.87
2018-03-23T16:28:01.961Z,41.87
2018-03-23T16:30:28.135Z,41.85
2018-03-23T16:32:54.356Z,41.86
2018-03-23T16:35:20.566Z,41.89
2018-03-23T16:37:46.796Z,41.88
2018-03-23T16:40:13.077Z,41.89
2018-03-23T16:42:39.268Z,41.88
2018-03-23T16:45:05.519Z,41.87
2018-03-23T16:47:31.706Z,41.88
2018-03-23T16:49:58.000Z,41.87
2018-03-23T16:52:24.257Z,41.87
2018-03-23T16:54:50.480Z,41.86
2018-03-23T16:57:16.683Z,41.88
2018-03-23T16:59:42.873Z,41.91
2018-03-23T17:02:09.111Z,41.94
2018-03-23T17:04:35.329Z,41.93
2018-03-23T17:07:01.535Z,41.92
2018-03-23T17:09:28.046Z,41.91
2018-03-23T17:11:54.241Z,41.93
2018-03-23T17:14:20.713Z,41.94
2018-03-23T17:16:46.957Z,41.93
2018-03-23T17:19:13.140Z,41.92
2018-03-23T17:21:39.328Z,41.94
2018-03-23T17:24:05.591Z,41.95
2018-03-23T17:26:31.778Z,41.95
2018-03-23T17:28:58.016Z,41.94
2018-03-23T17:31:24.250Z,41.99
2018-03-23T17:33:50.747Z,41.98
2018-03-23T17:36:16.966Z,41.98
2018-03-23T17:38:43.184Z,41.96
2018-03-23T17:41:09.734Z,41.97
2018-03-23T17:43:35.964Z,41.99
2018-03-23T17:46:02.117Z,41.98
2018-03-23T17:48:28.300Z,41.99
2018-03-23T17:50:54.851Z,41.99
2018-03-23T17:53:21.031Z,41.97
2018-03-23T17:55:47.257Z,41.98
2018-03-23T17:58:13.735Z,42.00
2018-03-23T18:00:39.952Z,41.98
2018-03-23T18:03:06.400Z,41.99
2018-03-23T18:05:32.612Z,41.99
2018-03-23T18:07:58.861Z,42.01
2018-03-23T18:10:25.056Z,42.01
2018-03-23T18:12:51.307Z,42.02
2018-03-23T18:15:17.498Z,42.04
2018-03-23T18:17:43.665Z,42.01
2018-03-23T18:20:09.906Z,42.00
2018-03-23T18:22:36.146Z,42.02
2018-03-23T18:25:02.328Z,42.04
2018-03-23T18:27:28.520Z,42.03
2018-03-23T18:29:55.424Z,42.05
2018-03-23T18:32:28.550Z,42.07
2018-03-23T18:34:54.753Z,42.07
2018-03-23T18:37:20.950Z,42.03
2018-03-23T18:39:47.143Z,42.03
2018-03-23T18:42:13.375Z,42.04
2018-03-23T18:44:39.555Z,42.05
2018-03-23T18:47:05.764Z,42.01
2018-03-23T18:49:31.992Z,42.03
2018-03-23T18:51:58.242Z,42.04
2018-03-23T18:54:24.415Z,42.03
2018-03-23T18:56:50.595Z,42.01
2018-03-23T18:59:16.810Z,42.00
2018-03-23T19:01:42.978Z,41.99
2018-03-23T19:04:09.474Z,42.01
2018-03-23T19:06:35.679Z,42.02
2018-03-23T19:09:01.913Z,42.02
2018-03-23T19:11:28.146Z,42.02
2018-03-23T19:13:54.321Z,42.05
2018-03-23T19:16:20.580Z,42.03
2018-03-23T19:18:47.049Z,42.05
2018-03-23T19:21:13.276Z,42.05
2018-03-23T19:23:39.810Z,42.04
2018-03-23T19:26:06.035Z,42.05
2018-03-23T19:28:32.205Z,42.07
2018-03-23T19:30:58.384Z,42.07
2018-03-23T19:33:24.932Z,42.05
2018-03-23T19:35:51.569Z,42.03
2018-03-23T19:38:17.779Z,42.02
2018-03-23T19:40:43.969Z,42.01
2018-03-23T19:43:10.212Z,42.01
2018-03-23T19:45:36.394Z,42.04
2018-03-23T19:48:02.911Z,42.05
2018-03-23T19:50:29.087Z,42.03
2018-03-23T19:52:55.267Z,42.04
2018-03-23T19:55:21.806Z,42.03
2018-03-23T19:57:47.980Z,42.00
2018-03-23T20:00:14.173Z,42.02
2018-03-23T20:02:40.345Z,42.03
2018-03-23T20:05:06.566Z,42.05
2018-03-23T20:07:32.741Z,42.02
2018-03-23T20:09:58.948Z,42.03
2018-03-23T20:12:25.291Z,41.99
2018-03-23T20:14:51.463Z,41.99
2018-03-23T20:17:17.744Z,41.99
2018-03-23T20:19:43.956Z,41.99
2018-03-23T20:22:10.132Z,41.99
2018-03-23T20:24:36.334Z,41.99
2018-03-23T20:27:08.430Z,42.02
2018-03-23T20:29:34.614Z,42.07
2018-03-23T20:32:06.799Z,42.05
2018-03-23T20:34:32.958Z,42.02
2018-03-23T20:36:59.154Z,42.02
2018-03-23T20:39:25.330Z,42.05
2018-03-23T20:41:51.924Z,42.04
2018-03-23T20:44:18.123Z,42.01
2018-03-23T20:46:44.335Z,42.00
2018-03-23T20:49:10.568Z,41.98
2018-03-23T20:51:36.725Z,41.97
2018-03-23T20:54:03.154Z,42.00
2018-03-23T20:56:29.691Z,42.02
2018-03-23T20:58:55.887Z,42.00
2018-03-23T21:01:22.132Z,42.01
2018-03-23T21:03:48.316Z,41.98
2018-03-23T21:06:14.478Z,41.99
2018-03-23T21:08:40.688Z,42.00
2018-03-23T21:11:06.866Z,42.00
2018-03-23T21:13:33.395Z,42.00
2018-03-23T21:15:59.576Z,42.01
2018-03-23T21:18:25.774Z,42.01
2018-03-23T21:20:51.942Z,42.01
2018-03-23T21:23:18.161Z,42.01
2018-03-23T21:25:44.334Z,42.02
2018-03-23T21:28:10.543Z,42.03
2018-03-23T21:30:36.985Z,42.03
2018-03-23T21:33:03.191Z,42.03
2018-03-23T21:35:29.400Z,42.03
2018-03-23T21:37:55.608Z,42.04
2018-03-23T21:40:22.176Z,42.02
2018-03-23T21:42:48.380Z,42.02
2018-03-23T21:45:14.871Z,42.03
2018-03-23T21:47:41.065Z,42.03
2018-03-23T21:50:07.534Z,42.01
2018-03-23T21:52:33.803Z,42.00
2018-03-23T21:55:00.294Z,42.00
2018-03-23T21:57:26.470Z,42.01
2018-03-23T21:59:52.954Z,42.02
2018-03-23T22:02:19.204Z,42.04
2018-03-23T22:04:45.467Z,42.03
2018-03-23T22:07:11.670Z,42.04
2018-03-23T22:09:37.847Z,42.05
2018-03-23T22:12:04.454Z,42.06
2018-03-23T22:14:30.629Z,42.04
2018-03-23T22:16:56.793Z,42.03
2018-03-23T22:19:23.011Z,42.04
2018-03-23T22:21:49.182Z,42.05
2018-03-23T22:24:15.383Z,42.06
2018-03-23T22:26:41.559Z,42.04
2018-03-23T22:29:07.998Z,42.01
2018-03-23T22:31:34.230Z,42.02
2018-03-23T22:34:07.395Z,42.00
2018-03-23T22:36:33.850Z,42.00
2018-03-23T22:39:00.055Z,41.97
2018-03-23T22:41:26.239Z,41.96
2018-03-23T22:43:52.451Z,41.97
2018-03-23T22:46:18.670Z,41.95
2018-03-23T22:48:44.834Z,41.95
2018-03-23T22:51:11.326Z,42.01
2018-03-23T22:53:37.503Z,41.98
2018-03-23T22:56:04.064Z,41.98
2018-03-23T22:58:30.237Z,41.98
2018-03-23T23:00:56.415Z,42.00
2018-03-23T23:03:22.619Z,41.99
2018-03-23T23:05:48.801Z,41.98
2018-03-23T23:08:15.383Z,42.00
2018-03-23T23:10:41.576Z,42.02
2018-03-23T23:13:07.766Z,42.04
2018-03-23T23:15:34.322Z,42.02
2018-03-23T23:18:00.513Z,41.99
2018-03-23T23:20:26.757Z,41.99
2018-03-23T23:22:53.329Z,41.98
2018-03-23T23:25:19.745Z,41.98
2018-03-23T23:27:45.942Z,41.96
2018-03-23T23:30:12.119Z,41.95
2018-03-23T23:32:38.364Z,41.94
2018-03-23T23:35:04.863Z,41.96
2018-03-23T23:37:31.067Z,41.95
2018-03-23T23:39:57.238Z,41.93
2018-03-23T23:42:23.451Z,41.92
2018-03-23T23:44:49.651Z,41.90
2018-03-23T23:47:15.858Z,41.91
2018-03-23T23:49:42.047Z,41.90
2018-03-23T23:52:08.260Z,41.92
2018-03-23T23:54:34.435Z,41.91
2018-03-23T23:57:00.679Z,41.92
2018-03-23T23:59:26.846Z,41.93
